sensor_id;sensor_type;location;lat;lon;timestamp;P1;durP1;ratioP1;P2;durP2;ratioP2
17441;SDS011;8838;50.144;8.176;2023-11-18T00:00:38;30.17;;;16.33;;
17441;SDS011;8838;50.144;8.176;2023-11-18T00:03:06;30.13;;;15.70;;
17441;SDS011;8838;50.144;8.176;2023-11-18T00:05:33;27.30;;;15.20;;
17441;SDS011;8838;50.144;8.176;2023-11-18T00:07:59;28.83;;;15.70;;
17441;SDS011;8838;50.144;8.176;2023-11-18T00:10:26;28.47;;;15.13;;
17441;SDS011;8838;50.144;8.176;2023-11-18T00:12:55;27.83;;;15.93;;
17441;SDS011;8838;50.144;8.176;2023-11-18T00:15:22;29.50;;;15.23;;
17441;SDS011;8838;50.144;8.176;2023-11-18T00:17:49;25.67;;;14.03;;
17441;SDS011;8838;50.144;8.176;2023-11-18T00:20:16;26.53;;;13.60;;
17441;SDS011;8838;50.144;8.176;2023-11-18T00:22:43;26.70;;;13.93;;
17441;SDS011;8838;50.144;8.176;2023-11-18T00:25:10;25.97;;;14.33;;
17441;SDS011;8838;50.144;8.176;2023-11-18T00:27:39;24.57;;;14.30;;
17441;SDS011;8838;50.144;8.176;2023-11-18T00:30:09;44.63;;;16.90;;
17441;SDS011;8838;50.144;8.176;2023-11-18T00:32:36;28.80;;;15.37;;
17441;SDS011;8838;50.144;8.176;2023-11-18T00:35:03;34.67;;;16.47;;
17441;SDS011;8838;50.144;8.176;2023-11-18T00:37:31;31.30;;;16.07;;
17441;SDS011;8838;50.144;8.176;2023-11-18T00:39:58;55.03;;;17.60;;
17441;SDS011;8838;50.144;8.176;2023-11-18T00:42:25;47.87;;;17.30;;
17441;SDS011;8838;50.144;8.176;2023-11-18T00:44:52;59.03;;;17.33;;
17441;SDS011;8838;50.144;8.176;2023-11-18T00:47:21;135.30;;;18.67;;
17441;SDS011;8838;50.144;8.176;2023-11-18T00:49:49;150.43;;;17.90;;
17441;SDS011;8838;50.144;8.176;2023-11-18T00:52:17;66.93;;;17.67;;
17441;SDS011;8838;50.144;8.176;2023-11-18T00:54:44;40.73;;;17.30;;
17441;SDS011;8838;50.144;8.176;2023-11-18T00:57:11;52.37;;;16.73;;
17441;SDS011;8838;50.144;8.176;2023-11-18T00:59:41;106.17;;;18.23;;
17441;SDS011;8838;50.144;8.176;2023-11-18T01:02:08;89.13;;;16.57;;
17441;SDS011;8838;50.144;8.176;2023-11-18T01:04:36;54.73;;;14.50;;
17441;SDS011;8838;50.144;8.176;2023-11-18T01:07:03;64.63;;;16.30;;
17441;SDS011;8838;50.144;8.176;2023-11-18T01:09:29;48.17;;;13.20;;
17441;SDS011;8838;50.144;8.176;2023-11-18T01:12:01;40.83;;;14.67;;
17441;SDS011;8838;50.144;8.176;2023-11-18T01:14:29;54.00;;;15.03;;
17441;SDS011;8838;50.144;8.176;2023-11-18T01:16:55;89.80;;;14.53;;
17441;SDS011;8838;50.144;8.176;2023-11-18T01:19:22;82.20;;;15.77;;
17441;SDS011;8838;50.144;8.176;2023-11-18T01:21:51;76.00;;;14.53;;
17441;SDS011;8838;50.144;8.176;2023-11-18T01:24:18;87.93;;;13.90;;
17441;SDS011;8838;50.144;8.176;2023-11-18T01:26:45;149.87;;;14.47;;
17441;SDS011;8838;50.144;8.176;2023-11-18T01:29:11;170.97;;;14.80;;
17441;SDS011;8838;50.144;8.176;2023-11-18T01:31:39;88.77;;;14.73;;
17441;SDS011;8838;50.144;8.176;2023-11-18T01:34:06;133.90;;;14.87;;
17441;SDS011;8838;50.144;8.176;2023-11-18T01:36:33;72.73;;;13.80;;
17441;SDS011;8838;50.144;8.176;2023-11-18T01:39:01;288.50;;;18.67;;
17441;SDS011;8838;50.144;8.176;2023-11-18T01:41:29;69.33;;;13.00;;
17441;SDS011;8838;50.144;8.176;2023-11-18T01:43:57;192.97;;;16.80;;
17441;SDS011;8838;50.144;8.176;2023-11-18T01:46:25;335.33;;;19.27;;
17441;SDS011;8838;50.144;8.176;2023-11-18T01:48:54;402.57;;;19.43;;
17441;SDS011;8838;50.144;8.176;2023-11-18T01:51:23;81.23;;;14.10;;
17441;SDS011;8838;50.144;8.176;2023-11-18T01:53:51;104.50;;;14.10;;
17441;SDS011;8838;50.144;8.176;2023-11-18T01:56:19;166.57;;;15.07;;
17441;SDS011;8838;50.144;8.176;2023-11-18T01:58:50;57.47;;;13.47;;
17441;SDS011;8838;50.144;8.176;2023-11-18T02:01:17;35.13;;;12.93;;
17441;SDS011;8838;50.144;8.176;2023-11-18T02:03:44;75.03;;;12.83;;
17441;SDS011;8838;50.144;8.176;2023-11-18T02:06:12;119.37;;;14.37;;
17441;SDS011;8838;50.144;8.176;2023-11-18T02:08:40;51.93;;;13.77;;
17441;SDS011;8838;50.144;8.176;2023-11-18T02:11:10;42.37;;;12.40;;
17441;SDS011;8838;50.144;8.176;2023-11-18T02:13:46;81.03;;;14.27;;
17441;SDS011;8838;50.144;8.176;2023-11-18T02:16:14;60.30;;;12.23;;
17441;SDS011;8838;50.144;8.176;2023-11-18T02:18:42;65.40;;;12.60;;
17441;SDS011;8838;50.144;8.176;2023-11-18T02:21:09;72.97;;;12.17;;
17441;SDS011;8838;50.144;8.176;2023-11-18T02:23:39;72.73;;;12.20;;
17441;SDS011;8838;50.144;8.176;2023-11-18T02:26:08;54.93;;;12.57;;
17441;SDS011;8838;50.144;8.176;2023-11-18T02:28:35;54.73;;;12.47;;
17441;SDS011;8838;50.144;8.176;2023-11-18T02:31:03;64.00;;;11.20;;
17441;SDS011;8838;50.144;8.176;2023-11-18T02:33:42;53.60;;;12.77;;
17441;SDS011;8838;50.144;8.176;2023-11-18T02:36:16;36.03;;;11.30;;
17441;SDS011;8838;50.144;8.176;2023-11-18T02:38:56;59.40;;;10.93;;
17441;SDS011;8838;50.144;8.176;2023-11-18T02:41:26;37.07;;;10.90;;
17441;SDS011;8838;50.144;8.176;2023-11-18T02:43:54;67.43;;;11.53;;
17441;SDS011;8838;50.144;8.176;2023-11-18T02:46:23;35.60;;;10.37;;
17441;SDS011;8838;50.144;8.176;2023-11-18T02:48:52;76.30;;;11.77;;
17441;SDS011;8838;50.144;8.176;2023-11-18T02:51:20;34.27;;;10.93;;
17441;SDS011;8838;50.144;8.176;2023-11-18T02:53:47;61.93;;;10.33;;
17441;SDS011;8838;50.144;8.176;2023-11-18T02:56:14;101.43;;;10.73;;
17441;SDS011;8838;50.144;8.176;2023-11-18T02:58:43;41.33;;;9.83;;
17441;SDS011;8838;50.144;8.176;2023-11-18T03:01:09;41.97;;;9.20;;
17441;SDS011;8838;50.144;8.176;2023-11-18T03:03:36;157.47;;;12.17;;
17441;SDS011;8838;50.144;8.176;2023-11-18T03:06:03;84.87;;;10.53;;
17441;SDS011;8838;50.144;8.176;2023-11-18T03:08:31;222.17;;;14.67;;
17441;SDS011;8838;50.144;8.176;2023-11-18T03:10:58;181.00;;;13.80;;
17441;SDS011;8838;50.144;8.176;2023-11-18T03:13:24;23.10;;;10.27;;
17441;SDS011;8838;50.144;8.176;2023-11-18T03:15:52;29.30;;;9.50;;
17441;SDS011;8838;50.144;8.176;2023-11-18T03:18:19;16.90;;;9.33;;
17441;SDS011;8838;50.144;8.176;2023-11-18T03:20:46;17.13;;;9.67;;
17441;SDS011;8838;50.144;8.176;2023-11-18T03:23:14;52.03;;;10.00;;
17441;SDS011;8838;50.144;8.176;2023-11-18T03:25:41;33.33;;;10.13;;
17441;SDS011;8838;50.144;8.176;2023-11-18T03:28:08;91.17;;;11.57;;
17441;SDS011;8838;50.144;8.176;2023-11-18T03:30:35;104.67;;;11.93;;
17441;SDS011;8838;50.144;8.176;2023-11-18T03:33:04;16.53;;;10.50;;
17441;SDS011;8838;50.144;8.176;2023-11-18T03:35:35;17.93;;;10.90;;
17441;SDS011;8838;50.144;8.176;2023-11-18T03:38:02;15.73;;;10.07;;
17441;SDS011;8838;50.144;8.176;2023-11-18T03:40:29;18.07;;;10.63;;
17441;SDS011;8838;50.144;8.176;2023-11-18T03:42:56;23.43;;;9.83;;
17441;SDS011;8838;50.144;8.176;2023-11-18T03:45:23;29.00;;;10.33;;
17441;SDS011;8838;50.144;8.176;2023-11-18T03:47:50;13.70;;;9.30;;
17441;SDS011;8838;50.144;8.176;2023-11-18T03:50:18;15.53;;;9.70;;
17441;SDS011;8838;50.144;8.176;2023-11-18T03:52:45;15.30;;;8.63;;
17441;SDS011;8838;50.144;8.176;2023-11-18T03:55:12;13.67;;;8.80;;
17441;SDS011;8838;50.144;8.176;2023-11-18T03:57:38;15.43;;;9.10;;
17441;SDS011;8838;50.144;8.176;2023-11-18T04:00:05;15.90;;;9.20;;
17441;SDS011;8838;50.144;8.176;2023-11-18T04:02:36;13.03;;;8.73;;
17441;SDS011;8838;50.144;8.176;2023-11-18T04:05:05;13.33;;;8.77;;
17441;SDS011;8838;50.144;8.176;2023-11-18T04:07:34;13.53;;;8.90;;
17441;SDS011;8838;50.144;8.176;2023-11-18T04:10:01;14.30;;;8.87;;
17441;SDS011;8838;50.144;8.176;2023-11-18T04:12:30;13.80;;;9.17;;
17441;SDS011;8838;50.144;8.176;2023-11-18T04:14:57;12.50;;;8.83;;
17441;SDS011;8838;50.144;8.176;2023-11-18T04:17:24;13.20;;;8.87;;
17441;SDS011;8838;50.144;8.176;2023-11-18T04:19:53;15.13;;;8.83;;
17441;SDS011;8838;50.144;8.176;2023-11-18T04:22:20;12.97;;;8.93;;
17441;SDS011;8838;50.144;8.176;2023-11-18T04:24:48;11.83;;;8.17;;
17441;SDS011;8838;50.144;8.176;2023-11-18T04:27:15;11.40;;;8.20;;
17441;SDS011;8838;50.144;8.176;2023-11-18T04:29:42;12.63;;;8.23;;
17441;SDS011;8838;50.144;8.176;2023-11-18T04:32:09;15.07;;;9.07;;
17441;SDS011;8838;50.144;8.176;2023-11-18T04:34:39;14.17;;;8.33;;
17441;SDS011;8838;50.144;8.176;2023-11-18T04:37:07;14.70;;;8.90;;
17441;SDS011;8838;50.144;8.176;2023-11-18T04:39:34;15.37;;;9.27;;
17441;SDS011;8838;50.144;8.176;2023-11-18T04:42:03;15.03;;;9.00;;
17441;SDS011;8838;50.144;8.176;2023-11-18T04:44:30;13.60;;;8.83;;
17441;SDS011;8838;50.144;8.176;2023-11-18T04:46:57;15.40;;;9.17;;
17441;SDS011;8838;50.144;8.176;2023-11-18T04:49:24;16.57;;;9.00;;
17441;SDS011;8838;50.144;8.176;2023-11-18T04:51:51;17.93;;;9.77;;
17441;SDS011;8838;50.144;8.176;2023-11-18T04:54:18;17.63;;;9.60;;
17441;SDS011;8838;50.144;8.176;2023-11-18T04:56:45;17.10;;;9.97;;
17441;SDS011;8838;50.144;8.176;2023-11-18T04:59:14;17.17;;;10.00;;
17441;SDS011;8838;50.144;8.176;2023-11-18T05:01:42;19.83;;;11.20;;
17441;SDS011;8838;50.144;8.176;2023-11-18T05:04:09;22.17;;;11.00;;
17441;SDS011;8838;50.144;8.176;2023-11-18T05:06:36;16.07;;;10.43;;
17441;SDS011;8838;50.144;8.176;2023-11-18T05:09:03;16.40;;;10.07;;
17441;SDS011;8838;50.144;8.176;2023-11-18T05:11:32;14.80;;;9.43;;
17441;SDS011;8838;50.144;8.176;2023-11-18T05:13:59;13.27;;;8.10;;
17441;SDS011;8838;50.144;8.176;2023-11-18T05:16:29;18.07;;;9.37;;
17441;SDS011;8838;50.144;8.176;2023-11-18T05:18:56;17.17;;;9.60;;
17441;SDS011;8838;50.144;8.176;2023-11-18T05:21:22;21.87;;;12.27;;
17441;SDS011;8838;50.144;8.176;2023-11-18T05:23:49;18.60;;;10.20;;
17441;SDS011;8838;50.144;8.176;2023-11-18T05:26:16;22.13;;;12.30;;
17441;SDS011;8838;50.144;8.176;2023-11-18T05:28:43;24.97;;;14.40;;
17441;SDS011;8838;50.144;8.176;2023-11-18T05:31:10;33.00;;;17.13;;
17441;SDS011;8838;50.144;8.176;2023-11-18T05:33:38;28.87;;;16.10;;
17441;SDS011;8838;50.144;8.176;2023-11-18T05:36:06;29.37;;;15.33;;
17441;SDS011;8838;50.144;8.176;2023-11-18T05:38:33;30.37;;;16.30;;
17441;SDS011;8838;50.144;8.176;2023-11-18T05:41:01;32.10;;;17.37;;
17441;SDS011;8838;50.144;8.176;2023-11-18T05:43:29;31.07;;;17.23;;
17441;SDS011;8838;50.144;8.176;2023-11-18T05:46:01;31.30;;;17.07;;
17441;SDS011;8838;50.144;8.176;2023-11-18T05:48:47;30.33;;;17.77;;
17441;SDS011;8838;50.144;8.176;2023-11-18T05:51:18;35.23;;;18.67;;
17441;SDS011;8838;50.144;8.176;2023-11-18T05:53:46;33.50;;;17.73;;
17441;SDS011;8838;50.144;8.176;2023-11-18T05:56:13;39.13;;;20.97;;
17441;SDS011;8838;50.144;8.176;2023-11-18T05:58:41;39.17;;;22.27;;
17441;SDS011;8838;50.144;8.176;2023-11-18T06:01:09;42.10;;;21.73;;
17441;SDS011;8838;50.144;8.176;2023-11-18T06:03:36;46.67;;;23.17;;
17441;SDS011;8838;50.144;8.176;2023-11-18T06:06:06;40.27;;;23.13;;
17441;SDS011;8838;50.144;8.176;2023-11-18T06:08:34;39.20;;;21.17;;
17441;SDS011;8838;50.144;8.176;2023-11-18T06:11:02;45.17;;;23.00;;
17441;SDS011;8838;50.144;8.176;2023-11-18T06:13:37;40.27;;;21.80;;
17441;SDS011;8838;50.144;8.176;2023-11-18T06:16:07;41.40;;;22.97;;
17441;SDS011;8838;50.144;8.176;2023-11-18T06:18:39;41.70;;;22.80;;
17441;SDS011;8838;50.144;8.176;2023-11-18T06:21:07;38.70;;;21.70;;
17441;SDS011;8838;50.144;8.176;2023-11-18T06:23:36;42.00;;;21.60;;
17441;SDS011;8838;50.144;8.176;2023-11-18T06:26:03;39.40;;;22.17;;
17441;SDS011;8838;50.144;8.176;2023-11-18T06:28:30;41.43;;;21.80;;
17441;SDS011;8838;50.144;8.176;2023-11-18T06:30:57;38.50;;;22.40;;
17441;SDS011;8838;50.144;8.176;2023-11-18T06:33:27;38.40;;;21.47;;
17441;SDS011;8838;50.144;8.176;2023-11-18T06:35:54;43.47;;;23.80;;
17441;SDS011;8838;50.144;8.176;2023-11-18T06:38:22;45.23;;;23.93;;
17441;SDS011;8838;50.144;8.176;2023-11-18T06:40:49;48.13;;;24.90;;
17441;SDS011;8838;50.144;8.176;2023-11-18T06:43:18;46.27;;;24.97;;
17441;SDS011;8838;50.144;8.176;2023-11-18T06:45:45;46.17;;;24.50;;
17441;SDS011;8838;50.144;8.176;2023-11-18T06:48:16;48.43;;;24.63;;
17441;SDS011;8838;50.144;8.176;2023-11-18T06:50:45;49.37;;;25.00;;
17441;SDS011;8838;50.144;8.176;2023-11-18T06:53:12;43.20;;;23.63;;
17441;SDS011;8838;50.144;8.176;2023-11-18T06:55:42;42.87;;;23.60;;
17441;SDS011;8838;50.144;8.176;2023-11-18T06:58:08;46.63;;;23.80;;
17441;SDS011;8838;50.144;8.176;2023-11-18T07:00:36;41.87;;;23.63;;
17441;SDS011;8838;50.144;8.176;2023-11-18T07:03:03;46.33;;;23.50;;
17441;SDS011;8838;50.144;8.176;2023-11-18T07:05:31;39.87;;;22.93;;
17441;SDS011;8838;50.144;8.176;2023-11-18T07:07:57;43.93;;;23.13;;
17441;SDS011;8838;50.144;8.176;2023-11-18T07:10:24;43.57;;;23.97;;
17441;SDS011;8838;50.144;8.176;2023-11-18T07:12:54;42.17;;;22.07;;
17441;SDS011;8838;50.144;8.176;2023-11-18T07:15:20;44.40;;;20.70;;
17441;SDS011;8838;50.144;8.176;2023-11-18T07:17:47;39.80;;;20.77;;
17441;SDS011;8838;50.144;8.176;2023-11-18T07:20:14;40.20;;;20.83;;
17441;SDS011;8838;50.144;8.176;2023-11-18T07:22:42;39.73;;;20.50;;
17441;SDS011;8838;50.144;8.176;2023-11-18T07:25:08;36.70;;;18.63;;
17441;SDS011;8838;50.144;8.176;2023-11-18T07:27:35;41.83;;;20.53;;
17441;SDS011;8838;50.144;8.176;2023-11-18T07:30:04;38.87;;;19.97;;
17441;SDS011;8838;50.144;8.176;2023-11-18T07:32:32;35.50;;;19.20;;
17441;SDS011;8838;50.144;8.176;2023-11-18T07:34:59;41.33;;;20.37;;
17441;SDS011;8838;50.144;8.176;2023-11-18T07:37:26;42.90;;;20.93;;
17441;SDS011;8838;50.144;8.176;2023-11-18T07:39:53;34.33;;;18.43;;
17441;SDS011;8838;50.144;8.176;2023-11-18T07:42:20;37.90;;;18.80;;
17441;SDS011;8838;50.144;8.176;2023-11-18T07:44:47;33.83;;;18.53;;
17441;SDS011;8838;50.144;8.176;2023-11-18T07:47:15;35.00;;;19.07;;
17441;SDS011;8838;50.144;8.176;2023-11-18T07:49:42;38.23;;;19.97;;
17441;SDS011;8838;50.144;8.176;2023-11-18T07:52:10;43.83;;;20.00;;
17441;SDS011;8838;50.144;8.176;2023-11-18T07:54:37;35.97;;;19.07;;
17441;SDS011;8838;50.144;8.176;2023-11-18T07:57:04;36.40;;;20.07;;
17441;SDS011;8838;50.144;8.176;2023-11-18T07:59:35;36.60;;;20.17;;
17441;SDS011;8838;50.144;8.176;2023-11-18T08:02:02;35.73;;;19.10;;
17441;SDS011;8838;50.144;8.176;2023-11-18T08:04:35;34.87;;;17.57;;
17441;SDS011;8838;50.144;8.176;2023-11-18T08:07:02;29.83;;;15.87;;
17441;SDS011;8838;50.144;8.176;2023-11-18T08:09:30;30.47;;;18.00;;
17441;SDS011;8838;50.144;8.176;2023-11-18T08:11:57;33.90;;;18.40;;
17441;SDS011;8838;50.144;8.176;2023-11-18T08:14:24;35.00;;;17.47;;
17441;SDS011;8838;50.144;8.176;2023-11-18T08:16:51;34.10;;;17.80;;
17441;SDS011;8838;50.144;8.176;2023-11-18T08:19:20;35.67;;;18.93;;
17441;SDS011;8838;50.144;8.176;2023-11-18T08:21:49;32.23;;;17.37;;
17441;SDS011;8838;50.144;8.176;2023-11-18T08:24:17;40.83;;;19.03;;
17441;SDS011;8838;50.144;8.176;2023-11-18T08:26:43;36.43;;;19.80;;
17441;SDS011;8838;50.144;8.176;2023-11-18T08:29:12;37.67;;;19.60;;
17441;SDS011;8838;50.144;8.176;2023-11-18T08:31:39;31.23;;;17.90;;
17441;SDS011;8838;50.144;8.176;2023-11-18T08:34:06;36.33;;;19.57;;
17441;SDS011;8838;50.144;8.176;2023-11-18T08:36:35;35.47;;;18.03;;
17441;SDS011;8838;50.144;8.176;2023-11-18T08:39:03;39.47;;;18.43;;
17441;SDS011;8838;50.144;8.176;2023-11-18T08:41:31;37.30;;;19.27;;
17441;SDS011;8838;50.144;8.176;2023-11-18T08:43:57;37.97;;;17.93;;
17441;SDS011;8838;50.144;8.176;2023-11-18T08:46:24;34.50;;;17.83;;
17441;SDS011;8838;50.144;8.176;2023-11-18T08:48:51;34.60;;;18.40;;
17441;SDS011;8838;50.144;8.176;2023-11-18T08:51:20;43.57;;;18.90;;
17441;SDS011;8838;50.144;8.176;2023-11-18T08:53:51;35.17;;;17.57;;
17441;SDS011;8838;50.144;8.176;2023-11-18T08:56:21;34.67;;;18.20;;
17441;SDS011;8838;50.144;8.176;2023-11-18T08:58:59;35.63;;;17.27;;
17441;SDS011;8838;50.144;8.176;2023-11-18T09:01:26;35.53;;;17.33;;
17441;SDS011;8838;50.144;8.176;2023-11-18T09:03:53;41.10;;;18.57;;
17441;SDS011;8838;50.144;8.176;2023-11-18T09:06:22;42.50;;;17.93;;
17441;SDS011;8838;50.144;8.176;2023-11-18T09:08:53;32.40;;;17.63;;
17441;SDS011;8838;50.144;8.176;2023-11-18T09:11:24;29.90;;;16.33;;
17441;SDS011;8838;50.144;8.176;2023-11-18T09:13:54;33.57;;;17.90;;
17441;SDS011;8838;50.144;8.176;2023-11-18T09:16:25;43.93;;;17.60;;
17441;SDS011;8838;50.144;8.176;2023-11-18T09:18:55;32.33;;;17.57;;
17441;SDS011;8838;50.144;8.176;2023-11-18T09:21:24;40.73;;;19.03;;
17441;SDS011;8838;50.144;8.176;2023-11-18T09:23:54;37.30;;;18.90;;
17441;SDS011;8838;50.144;8.176;2023-11-18T09:26:21;31.23;;;17.60;;
17441;SDS011;8838;50.144;8.176;2023-11-18T09:28:50;35.20;;;18.20;;
17441;SDS011;8838;50.144;8.176;2023-11-18T09:31:17;33.27;;;18.17;;
17441;SDS011;8838;50.144;8.176;2023-11-18T09:33:47;32.70;;;18.17;;
17441;SDS011;8838;50.144;8.176;2023-11-18T09:36:18;33.53;;;18.50;;
17441;SDS011;8838;50.144;8.176;2023-11-18T09:38:45;34.27;;;17.77;;
17441;SDS011;8838;50.144;8.176;2023-11-18T09:41:12;36.97;;;18.33;;
17441;SDS011;8838;50.144;8.176;2023-11-18T09:43:42;30.73;;;17.53;;
17441;SDS011;8838;50.144;8.176;2023-11-18T09:46:11;37.80;;;17.50;;
17441;SDS011;8838;50.144;8.176;2023-11-18T09:48:42;43.70;;;17.67;;
17441;SDS011;8838;50.144;8.176;2023-11-18T09:51:14;39.40;;;16.67;;
17441;SDS011;8838;50.144;8.176;2023-11-18T09:53:46;41.37;;;18.50;;
17441;SDS011;8838;50.144;8.176;2023-11-18T09:56:18;41.03;;;17.77;;
17441;SDS011;8838;50.144;8.176;2023-11-18T09:58:57;36.00;;;17.63;;
17441;SDS011;8838;50.144;8.176;2023-11-18T10:01:31;40.47;;;18.60;;
17441;SDS011;8838;50.144;8.176;2023-11-18T10:04:03;43.27;;;20.67;;
17441;SDS011;8838;50.144;8.176;2023-11-18T10:06:32;53.60;;;18.47;;
17441;SDS011;8838;50.144;8.176;2023-11-18T10:09:03;102.07;;;18.63;;
17441;SDS011;8838;50.144;8.176;2023-11-18T10:11:40;35.00;;;18.77;;
17441;SDS011;8838;50.144;8.176;2023-11-18T10:14:08;197.77;;;21.00;;
17441;SDS011;8838;50.144;8.176;2023-11-18T10:16:35;67.37;;;19.00;;
17441;SDS011;8838;50.144;8.176;2023-11-18T10:19:03;40.30;;;19.97;;
17441;SDS011;8838;50.144;8.176;2023-11-18T10:21:34;103.57;;;20.10;;
17441;SDS011;8838;50.144;8.176;2023-11-18T10:24:04;87.40;;;19.87;;
17441;SDS011;8838;50.144;8.176;2023-11-18T10:26:39;211.70;;;21.73;;
17441;SDS011;8838;50.144;8.176;2023-11-18T10:29:06;35.07;;;18.40;;
17441;SDS011;8838;50.144;8.176;2023-11-18T10:31:38;140.00;;;19.63;;
17441;SDS011;8838;50.144;8.176;2023-11-18T10:34:10;39.57;;;18.30;;
17441;SDS011;8838;50.144;8.176;2023-11-18T10:36:40;109.50;;;19.40;;
17441;SDS011;8838;50.144;8.176;2023-11-18T10:39:10;111.50;;;18.87;;
17441;SDS011;8838;50.144;8.176;2023-11-18T10:41:42;95.97;;;18.73;;
17441;SDS011;8838;50.144;8.176;2023-11-18T10:44:14;30.07;;;15.77;;
17441;SDS011;8838;50.144;8.176;2023-11-18T10:46:41;33.77;;;17.70;;
17441;SDS011;8838;50.144;8.176;2023-11-18T10:49:17;31.87;;;17.50;;
17441;SDS011;8838;50.144;8.176;2023-11-18T10:51:46;173.40;;;18.70;;
17441;SDS011;8838;50.144;8.176;2023-11-18T10:54:13;112.20;;;17.53;;
17441;SDS011;8838;50.144;8.176;2023-11-18T10:56:46;27.23;;;16.30;;
17441;SDS011;8838;50.144;8.176;2023-11-18T10:59:16;181.03;;;20.87;;
17441;SDS011;8838;50.144;8.176;2023-11-18T11:01:43;163.87;;;17.10;;
17441;SDS011;8838;50.144;8.176;2023-11-18T11:04:14;91.87;;;17.40;;
17441;SDS011;8838;50.144;8.176;2023-11-18T11:06:42;156.97;;;19.90;;
17441;SDS011;8838;50.144;8.176;2023-11-18T11:09:17;155.17;;;19.13;;
17441;SDS011;8838;50.144;8.176;2023-11-18T11:11:46;315.80;;;21.60;;
17441;SDS011;8838;50.144;8.176;2023-11-18T11:14:17;340.30;;;22.50;;
17441;SDS011;8838;50.144;8.176;2023-11-18T11:16:47;101.97;;;17.77;;
17441;SDS011;8838;50.144;8.176;2023-11-18T11:19:20;343.27;;;23.57;;
17441;SDS011;8838;50.144;8.176;2023-11-18T11:21:55;188.03;;;20.20;;
17441;SDS011;8838;50.144;8.176;2023-11-18T11:24:28;137.03;;;20.13;;
17441;SDS011;8838;50.144;8.176;2023-11-18T11:27:09;705.77;;;32.53;;
17441;SDS011;8838;50.144;8.176;2023-11-18T11:29:48;162.93;;;18.60;;
17441;SDS011;8838;50.144;8.176;2023-11-18T11:32:23;498.33;;;24.93;;
17441;SDS011;8838;50.144;8.176;2023-11-18T11:34:56;394.37;;;23.93;;
17441;SDS011;8838;50.144;8.176;2023-11-18T11:37:30;281.30;;;21.10;;
17441;SDS011;8838;50.144;8.176;2023-11-18T11:39:59;340.97;;;24.87;;
17441;SDS011;8838;50.144;8.176;2023-11-18T11:42:29;221.00;;;20.87;;
17441;SDS011;8838;50.144;8.176;2023-11-18T11:45:01;242.30;;;22.50;;
17441;SDS011;8838;50.144;8.176;2023-11-18T11:47:28;287.73;;;24.13;;
17441;SDS011;8838;50.144;8.176;2023-11-18T11:50:03;223.83;;;23.97;;
17441;SDS011;8838;50.144;8.176;2023-11-18T11:52:38;305.13;;;25.73;;
17441;SDS011;8838;50.144;8.176;2023-11-18T11:55:17;332.50;;;25.27;;
17441;SDS011;8838;50.144;8.176;2023-11-18T11:57:52;425.80;;;27.90;;
17441;SDS011;8838;50.144;8.176;2023-11-18T12:00:25;388.67;;;26.40;;
17441;SDS011;8838;50.144;8.176;2023-11-18T12:03:00;431.73;;;28.57;;
17441;SDS011;8838;50.144;8.176;2023-11-18T12:05:29;314.57;;;25.20;;
17441;SDS011;8838;50.144;8.176;2023-11-18T12:07:58;221.43;;;25.33;;
17441;SDS011;8838;50.144;8.176;2023-11-18T12:10:29;294.60;;;24.50;;
17441;SDS011;8838;50.144;8.176;2023-11-18T12:13:06;890.97;;;42.47;;
17441;SDS011;8838;50.144;8.176;2023-11-18T12:15:48;175.17;;;24.33;;
17441;SDS011;8838;50.144;8.176;2023-11-18T12:18:20;199.10;;;25.70;;
17441;SDS011;8838;50.144;8.176;2023-11-18T12:20:47;1176.87;;;51.30;;
17441;SDS011;8838;50.144;8.176;2023-11-18T12:23:19;423.50;;;29.63;;
17441;SDS011;8838;50.144;8.176;2023-11-18T12:25:48;381.23;;;28.07;;
17441;SDS011;8838;50.144;8.176;2023-11-18T12:28:19;110.23;;;21.30;;
17441;SDS011;8838;50.144;8.176;2023-11-18T12:30:53;111.83;;;19.50;;
17441;SDS011;8838;50.144;8.176;2023-11-18T12:45:51;158.90;;;21.93;;
17441;SDS011;8838;50.144;8.176;2023-11-18T12:48:47;284.43;;;22.67;;
17441;SDS011;8838;50.144;8.176;2023-11-18T12:51:16;63.43;;;18.57;;
17441;SDS011;8838;50.144;8.176;2023-11-18T12:53:47;129.67;;;19.57;;
17441;SDS011;8838;50.144;8.176;2023-11-18T12:56:15;65.60;;;19.00;;
17441;SDS011;8838;50.144;8.176;2023-11-18T12:58:45;174.27;;;21.73;;
17441;SDS011;8838;50.144;8.176;2023-11-18T13:01:12;103.90;;;21.20;;
17441;SDS011;8838;50.144;8.176;2023-11-18T13:03:39;286.47;;;25.77;;
17441;SDS011;8838;50.144;8.176;2023-11-18T13:06:08;332.47;;;26.57;;
17441;SDS011;8838;50.144;8.176;2023-11-18T13:08:37;625.70;;;32.37;;
17441;SDS011;8838;50.144;8.176;2023-11-18T13:11:04;506.23;;;31.03;;
17441;SDS011;8838;50.144;8.176;2023-11-18T13:13:40;364.97;;;27.87;;
17441;SDS011;8838;50.144;8.176;2023-11-18T13:16:08;261.97;;;26.93;;
17441;SDS011;8838;50.144;8.176;2023-11-18T13:18:42;110.10;;;23.53;;
17441;SDS011;8838;50.144;8.176;2023-11-18T13:21:17;401.33;;;29.33;;
17441;SDS011;8838;50.144;8.176;2023-11-18T13:23:45;670.47;;;33.90;;
17441;SDS011;8838;50.144;8.176;2023-11-18T13:26:13;1219.03;;;52.03;;
17441;SDS011;8838;50.144;8.176;2023-11-18T13:28:40;1011.00;;;53.93;;
17441;SDS011;8838;50.144;8.176;2023-11-18T13:31:08;749.23;;;39.80;;
17441;SDS011;8838;50.144;8.176;2023-11-18T13:33:37;1244.90;;;55.27;;
17441;SDS011;8838;50.144;8.176;2023-11-18T13:36:04;761.60;;;40.73;;
17441;SDS011;8838;50.144;8.176;2023-11-18T13:38:39;325.33;;;31.77;;
17441;SDS011;8838;50.144;8.176;2023-11-18T13:41:07;291.23;;;29.83;;
17441;SDS011;8838;50.144;8.176;2023-11-18T13:43:43;188.30;;;27.77;;
17441;SDS011;8838;50.144;8.176;2023-11-18T13:46:12;571.33;;;37.63;;
17441;SDS011;8838;50.144;8.176;2023-11-18T13:48:39;991.63;;;47.43;;
17441;SDS011;8838;50.144;8.176;2023-11-18T13:51:06;1399.63;;;64.97;;
17441;SDS011;8838;50.144;8.176;2023-11-18T13:53:39;968.73;;;50.47;;
17441;SDS011;8838;50.144;8.176;2023-11-18T13:56:08;961.07;;;45.30;;
17441;SDS011;8838;50.144;8.176;2023-11-18T13:58:35;540.03;;;36.13;;
17441;SDS011;8838;50.144;8.176;2023-11-18T14:01:04;837.57;;;47.60;;
17441;SDS011;8838;50.144;8.176;2023-11-18T14:03:32;162.90;;;24.03;;
17441;SDS011;8838;50.144;8.176;2023-11-18T14:05:59;552.40;;;34.43;;
17441;SDS011;8838;50.144;8.176;2023-11-18T14:08:27;657.40;;;37.13;;
17441;SDS011;8838;50.144;8.176;2023-11-18T14:10:55;1294.60;;;57.73;;
17441;SDS011;8838;50.144;8.176;2023-11-18T14:13:22;739.10;;;42.70;;
17441;SDS011;8838;50.144;8.176;2023-11-18T14:15:49;322.67;;;29.33;;
17441;SDS011;8838;50.144;8.176;2023-11-18T14:18:20;731.47;;;40.97;;
17441;SDS011;8838;50.144;8.176;2023-11-18T14:20:47;359.87;;;28.30;;
17441;SDS011;8838;50.144;8.176;2023-11-18T14:23:14;684.80;;;35.17;;
17441;SDS011;8838;50.144;8.176;2023-11-18T14:25:43;436.50;;;33.77;;
17441;SDS011;8838;50.144;8.176;2023-11-18T14:28:11;179.27;;;24.50;;
17441;SDS011;8838;50.144;8.176;2023-11-18T14:30:38;83.23;;;20.83;;
17441;SDS011;8838;50.144;8.176;2023-11-18T14:33:05;114.47;;;21.07;;
17441;SDS011;8838;50.144;8.176;2023-11-18T14:35:33;197.83;;;23.63;;
17441;SDS011;8838;50.144;8.176;2023-11-18T14:38:00;403.87;;;28.87;;
17441;SDS011;8838;50.144;8.176;2023-11-18T14:40:27;222.80;;;21.80;;
17441;SDS011;8838;50.144;8.176;2023-11-18T14:42:54;137.07;;;22.30;;
17441;SDS011;8838;50.144;8.176;2023-11-18T14:45:23;106.57;;;19.53;;
17441;SDS011;8838;50.144;8.176;2023-11-18T14:47:50;36.53;;;17.13;;
17441;SDS011;8838;50.144;8.176;2023-11-18T14:50:18;32.10;;;16.60;;
17441;SDS011;8838;50.144;8.176;2023-11-18T14:52:46;25.30;;;14.80;;